KHHW

Details ICAO KHHW
Name STAN STAMPER MUNI
Region United States
Timezone America/Chicago (UTC-6.0)
Plans Departing 0
Arriving 1
Stats Elevation 571 ft / 174 m (AMSL)
Location 34.035936° -95.541905°
Runways 1
Magnetic Variation 2.488° E
Sunrise 2017-12-12 13:19:54 UTC / 2017-12-12 07:19:54 Local
Sunset 2017-12-12 23:15:00 UTC / 2017-12-12 17:15:00 Local
Advertisement - Login to hide

Runways

ID Width Length Bearing (true) Bearing (mag) Surface Threshold Offset Overrun Length
17 75 ft / 23 m 3,406 ft / 1,038 m 179.86° 177.37° Asphalt 0 ft / 0 m 0 ft / 0 m
35 75 ft / 23 m 3,406 ft / 1,038 m 359.86° 357.37° Asphalt 0 ft / 0 m 0 ft / 0 m

Map

Weather


0- 5 10 15 20 25 30 35+ Temperature / ° C

Clouds and Precipitation
Forecast for 2017-12-13 06:00 UTC. Updated 44 minutes ago

Ground ~20,000 ft ~40,000 ft Winds

METAR

KHHW 130355Z AUTO 26004KT 10SM CLR 05/M10 A3019 RMK AO2 T00501098

TAF

Not found

Frequencies

Recorded 119.02 MHz AWOS 3
Approach 124.87 MHz FORT WORTH CNTR
Unicom 122.80 MHz CTAF/UNICOM
Warning: Do not use this data for real-world aviation or navigation. No guarantee of current accuracy is given.